Time;durP1;ratioP1;P1;durP2;ratioP2;P2;SDS_P1;SDS_P2;PMS_P1;PMS_P2;Temp;Humidity;BMP_temperature;BMP_pressure;BME280_temperature;BME280_humidity;BME280_pressure;Samples;Min_cycle;Max_cycle;Signal;HPM_P1;HPM_P2
2022/07/21 00:01:05;;;;;;;10.00;9.20;;;25.90;58.00;;;;;;5053563;28;20578;-73
2022/07/21 00:03:31;;;;;;;9.43;8.63;;;25.90;58.20;;;;;;5035969;28;20206;-73
2022/07/21 00:05:59;;;;;;;9.45;8.65;;;25.90;58.10;;;;;;5035922;28;20214;-73
2022/07/21 00:08:26;;;;;;;9.85;9.02;;;25.90;58.10;;;;;;5035887;28;20231;-73
2022/07/21 00:10:53;;;;;;;9.27;8.57;;;25.90;58.20;;;;;;5035885;28;20220;-73
2022/07/21 00:13:20;;;;;;;9.32;8.52;;;25.90;58.20;;;;;;5053422;28;20195;-73
2022/07/21 00:15:49;;;;;;;9.43;8.70;;;25.90;58.20;;;;;;5035553;28;20223;-73
2022/07/21 00:18:16;;;;;;;9.57;8.77;;;25.90;58.20;;;;;;5036290;28;20199;-73
2022/07/21 00:20:43;;;;;;;9.32;8.63;;;25.90;58.20;;;;;;5035564;28;20231;-73
2022/07/21 00:23:10;;;;;;;9.75;8.85;;;25.80;58.30;;;;;;5035543;28;20200;-73
2022/07/21 00:25:37;;;;;;;9.73;8.90;;;25.80;58.20;;;;;;5036638;28;20207;-73
2022/07/21 00:28:05;;;;;;;9.98;9.07;;;25.80;58.10;;;;;;5036104;28;20194;-73
2022/07/21 00:30:32;;;;;;;9.68;8.88;;;25.80;58.20;;;;;;5035708;28;20207;-73
2022/07/21 00:33:00;;;;;;;9.57;8.80;;;25.80;58.20;;;;;;5035661;28;20199;-73
2022/07/21 00:35:28;;;;;;;9.68;8.88;;;25.80;58.20;;;;;;5035372;28;20679;-73
2022/07/21 00:37:55;;;;;;;9.57;8.77;;;25.80;58.20;;;;;;5035372;28;20628;-73
2022/07/21 00:40:22;;;;;;;9.60;8.80;;;25.80;58.20;;;;;;5035817;28;20241;-73
2022/07/21 00:42:49;;;;;;;9.48;8.68;;;25.70;58.20;;;;;;5035207;28;20204;-73
2022/07/21 00:45:18;;;;;;;9.98;9.18;;;25.80;58.30;;;;;;5035265;28;20191;-73
2022/07/21 00:47:46;;;;;;;9.95;9.15;;;25.70;58.20;;;;;;5053343;28;20270;-73
2022/07/21 00:50:16;;;;;;;9.35;8.45;;;25.70;58.20;;;;;;5035502;28;20219;-73
2022/07/21 00:52:43;;;;;;;10.10;9.30;;;25.80;58.20;;;;;;5035382;28;20250;-73
2022/07/21 00:55:12;;;;;;;9.88;9.07;;;25.70;58.20;;;;;;5053341;28;20211;-73
2022/07/21 00:57:40;;;;;;;9.65;8.85;;;25.70;58.20;;;;;;5035606;28;20210;-73
2022/07/21 01:00:09;;;;;;;10.07;9.23;;;25.70;58.20;;;;;;5035650;28;20684;-73
2022/07/21 01:02:37;;;;;;;9.63;8.73;;;25.70;58.20;;;;;;5035718;28;20575;-73
2022/07/21 01:05:04;;;;;;;9.65;8.85;;;25.70;58.10;;;;;;5036325;28;20803;-73
2022/07/21 01:07:32;;;;;;;9.63;8.82;;;25.70;58.10;;;;;;5035355;28;20202;-73
2022/07/21 01:09:59;;;;;;;9.68;8.93;;;25.70;58.70;;;;;;5035227;28;20728;-73
2022/07/21 01:12:26;;;;;;;9.60;8.80;;;25.70;58.20;;;;;;5053064;28;20202;-73
2022/07/21 01:14:56;;;;;;;9.70;8.80;;;25.70;58.20;;;;;;5052978;28;20212;-73
2022/07/21 01:17:23;;;;;;;9.23;8.43;;;25.70;58.10;;;;;;5035042;28;20200;-73
2022/07/21 01:19:51;;;;;;;8.85;8.15;;;25.70;58.10;;;;;;5034897;28;20310;-73
2022/07/21 01:22:19;;;;;;;8.93;8.23;;;25.70;58.00;;;;;;5053191;28;20251;-73
2022/07/21 01:24:47;;;;;;;9.63;8.73;;;25.60;57.90;;;;;;5034998;28;20689;-73
2022/07/21 01:27:16;;;;;;;9.80;8.90;;;25.60;57.90;;;;;;5036553;28;20206;-73
2022/07/21 01:29:43;;;;;;;9.18;8.38;;;25.60;58.00;;;;;;5056221;28;20215;-73
2022/07/21 01:32:10;;;;;;;9.77;8.88;;;25.60;58.00;;;;;;5038489;28;20195;-73
2022/07/21 01:34:37;;;;;;;9.60;8.80;;;25.60;57.90;;;;;;5038564;28;20200;-73
2022/07/21 01:37:04;;;;;;;9.73;8.98;;;25.60;58.00;;;;;;5038342;28;20653;-72
2022/07/21 01:42:17;;;;;;;9.25;8.45;;;25.60;58.00;;;;;;5038274;28;20645;-73
2022/07/21 01:44:44;;;;;;;9.43;8.73;;;25.60;57.90;;;;;;5038041;28;20200;-73
2022/07/21 01:47:12;;;;;;;9.85;8.88;;;25.60;58.00;;;;;;5038285;28;20210;-73
2022/07/21 01:49:39;;;;;;;9.70;8.90;;;25.60;58.00;;;;;;5038303;28;20298;-73
2022/07/21 01:52:07;;;;;;;10.00;9.10;;;25.60;58.60;;;;;;5038079;28;20196;-73
2022/07/21 01:54:35;;;;;;;9.93;9.00;;;25.60;58.10;;;;;;5037978;28;20203;-72
2022/07/21 01:57:02;;;;;;;9.43;8.52;;;25.60;58.10;;;;;;5038026;28;20650;-73
2022/07/21 01:59:29;;;;;;;9.30;8.57;;;25.60;58.00;;;;;;5038113;28;20719;-73
2022/07/21 02:01:57;;;;;;;9.68;8.80;;;25.60;58.00;;;;;;5056097;28;20724;-73
2022/07/21 02:04:23;;;;;;;9.07;8.38;;;25.60;58.00;;;;;;5055643;28;20199;-73
2022/07/21 02:06:51;;;;;;;9.38;8.57;;;25.60;57.90;;;;;;5055544;28;20263;-73
2022/07/21 02:09:18;;;;;;;9.57;8.80;;;25.60;58.00;;;;;;5037601;28;20203;-73
2022/07/21 02:11:46;;;;;;;10.00;8.90;;;25.50;58.60;;;;;;5055706;28;20199;-73
2022/07/21 02:14:14;;;;;;;8.98;8.23;;;25.60;58.00;;;;;;5037826;28;20199;-73
2022/07/21 02:16:40;;;;;;;9.10;8.40;;;25.60;58.00;;;;;;5037436;28;20231;-73
2022/07/21 02:19:09;;;;;;;9.18;8.48;;;25.60;58.10;;;;;;5037434;28;20199;-73
2022/07/21 02:21:36;;;;;;;8.70;8.00;;;25.50;58.00;;;;;;5055269;28;20202;-73
2022/07/21 02:24:04;;;;;;;8.88;8.05;;;25.60;58.00;;;;;;5037441;28;20200;-73
2022/07/21 02:26:31;;;;;;;9.15;8.35;;;25.50;58.00;;;;;;5037407;28;20566;-73
2022/07/21 02:28:59;;;;;;;8.73;8.02;;;25.50;58.00;;;;;;5037411;28;20219;-73
2022/07/21 02:31:26;;;;;;;8.90;8.20;;;25.60;58.10;;;;;;5037168;28;20222;-74
2022/07/21 02:33:54;;;;;;;9.35;8.60;;;25.50;58.00;;;;;;5037536;28;20569;-73
2022/07/21 02:36:21;;;;;;;9.20;8.50;;;25.50;58.00;;;;;;5037681;28;20215;-73
2022/07/21 02:38:49;;;;;;;8.80;8.00;;;25.60;58.10;;;;;;5036716;28;20191;-73
2022/07/21 02:41:16;;;;;;;9.05;8.25;;;25.50;58.00;;;;;;5037116;28;20577;-73
2022/07/21 02:43:43;;;;;;;9.93;9.10;;;25.50;57.90;;;;;;5037281;28;20257;-73
2022/07/21 02:46:13;;;;;;;8.88;8.18;;;25.50;58.00;;;;;;5037309;28;20203;-73
2022/07/21 02:48:40;;;;;;;8.52;7.90;;;25.50;58.20;;;;;;5053779;28;20203;-73
2022/07/21 02:51:08;;;;;;;9.02;8.23;;;25.50;58.00;;;;;;5037016;28;20728;-73
2022/07/21 02:53:35;;;;;;;10.07;8.60;;;25.50;58.10;;;;;;5221105;22;20648;-73
2022/07/21 02:56:02;;;;;;;9.93;8.10;;;25.50;58.10;;;;;;5016891;28;20216;-74
2022/07/21 02:58:30;;;;;;;9.20;8.40;;;25.50;58.10;;;;;;5017196;28;20200;-73
2022/07/21 03:00:57;;;;;;;8.70;7.93;;;25.50;58.00;;;;;;5032494;28;20219;-73
2022/07/21 03:03:27;;;;;;;8.38;7.68;;;25.50;58.10;;;;;;5036880;28;20700;-73
2022/07/21 03:05:54;;;;;;;8.57;7.88;;;25.50;58.00;;;;;;5036631;28;20191;-73
2022/07/21 03:08:21;;;;;;;8.35;7.65;;;25.50;58.00;;;;;;5036522;28;20203;-73
2022/07/21 03:10:48;;;;;;;8.90;8.10;;;25.50;58.80;;;;;;5036573;28;20259;-73
2022/07/21 03:13:16;;;;;;;8.48;7.78;;;25.50;58.20;;;;;;5036669;28;20234;-73
2022/07/21 03:15:43;;;;;;;8.30;7.60;;;25.50;58.40;;;;;;5037171;28;20208;-73
2022/07/21 03:18:10;;;;;;;8.60;7.90;;;25.50;58.60;;;;;;5036738;28;20196;-73
2022/07/21 03:20:40;;;;;;;8.80;8.07;;;25.40;58.80;;;;;;5036559;28;20230;-73
2022/07/21 03:23:06;;;;;;;8.07;7.30;;;25.40;59.00;;;;;;5036540;28;20225;-73
2022/07/21 03:25:33;;;;;;;8.40;7.60;;;25.50;59.00;;;;;;5036370;28;20191;-74
2022/07/21 03:28:00;;;;;;;7.50;6.90;;;25.50;59.10;;;;;;5036512;28;20547;-73
2022/07/21 03:30:28;;;;;;;8.02;7.35;;;25.50;59.20;;;;;;5036437;28;20215;-74
2022/07/21 03:32:55;;;;;;;7.80;7.00;;;25.50;59.20;;;;;;5036239;28;20652;-72
2022/07/21 03:35:22;;;;;;;8.25;7.55;;;25.50;59.00;;;;;;5036135;28;20319;-73
2022/07/21 03:37:52;;;;;;;7.60;6.90;;;25.60;58.90;;;;;;5036002;28;20204;-74
2022/07/21 03:40:22;;;;;;;7.78;7.07;;;25.60;58.90;;;;;;5054069;28;20204;-73
2022/07/21 03:42:50;;;;;;;7.60;6.95;;;25.60;58.90;;;;;;5036447;28;20199;-74
2022/07/21 03:45:17;;;;;;;7.35;6.65;;;25.60;58.90;;;;;;5035913;28;20195;-74
2022/07/21 03:47:44;;;;;;;7.35;6.85;;;25.60;58.90;;;;;;5036204;28;20621;-73
2022/07/21 03:50:12;;;;;;;7.55;6.93;;;25.60;58.90;;;;;;5053634;28;20688;-73
2022/07/21 03:52:40;;;;;;;7.22;6.60;;;25.60;58.90;;;;;;5035844;28;20199;-73
2022/07/21 03:55:09;;;;;;;7.53;6.93;;;25.60;58.90;;;;;;5035865;28;20635;-73
2022/07/21 03:57:37;;;;;;;7.20;6.60;;;25.60;58.90;;;;;;5035776;28;20265;-73
2022/07/21 04:00:07;;;;;;;6.88;6.28;;;25.60;59.50;;;;;;5035647;28;20215;-74
2022/07/21 04:02:38;;;;;;;6.88;6.28;;;25.60;58.90;;;;;;5053923;28;20180;-73
2022/07/21 04:05:06;;;;;;;7.70;7.00;;;25.60;58.90;;;;;;5035615;28;20199;-73
2022/07/21 04:07:33;;;;;;;6.93;6.32;;;25.60;58.90;;;;;;5053460;28;20190;-73
2022/07/21 04:10:00;;;;;;;7.78;6.47;;;25.60;58.80;;;;;;5035962;28;20219;-73
2022/07/21 04:12:28;;;;;;;7.13;6.53;;;25.60;58.90;;;;;;5035862;28;20199;-73
2022/07/21 04:14:56;;;;;;;6.75;6.22;;;25.60;58.90;;;;;;5035925;28;20206;-73
2022/07/21 04:17:22;;;;;;;6.55;6.00;;;25.60;58.90;;;;;;5035727;28;20219;-73
2022/07/21 04:19:50;;;;;;;7.07;6.47;;;25.60;58.90;;;;;;5035595;28;20255;-74
2022/07/21 04:22:17;;;;;;;6.70;6.10;;;25.60;58.90;;;;;;5035592;28;20200;-73
2022/07/21 04:24:44;;;;;;;6.80;6.30;;;25.60;58.90;;;;;;5035543;28;20195;-73
2022/07/21 04:27:12;;;;;;;7.07;6.47;;;25.60;58.80;;;;;;5035638;28;20192;-74
2022/07/21 04:29:40;;;;;;;6.35;5.85;;;25.50;58.70;;;;;;5035621;28;20222;-74
2022/07/21 04:32:07;;;;;;;6.68;6.07;;;25.60;58.70;;;;;;5035373;28;20195;-74
2022/07/21 04:34:34;;;;;;;6.10;5.68;;;25.60;58.70;;;;;;5053417;28;20564;-73
2022/07/21 04:39:36;;;;;;;7.90;7.10;;;25.60;59.80;;;;;;4992768;28;20274;-73
2022/07/21 04:42:03;;;;;;;7.82;7.13;;;25.60;63.20;;;;;;5181471;22;20205;-71
2022/07/21 04:44:31;;;;;;;7.80;7.10;;;25.50;63.50;;;;;;5033460;28;20173;-73
2022/07/21 04:46:59;;;;;;;8.27;7.47;;;25.20;64.40;;;;;;5015833;28;20199;-73
2022/07/21 04:49:26;;;;;;;8.00;7.32;;;25.10;65.20;;;;;;5037592;28;20599;-72
2022/07/21 04:51:53;;;;;;;8.27;7.40;;;24.90;65.20;;;;;;5085927;22;20335;-73
2022/07/21 04:54:20;;;;;;;8.00;7.30;;;24.90;65.90;;;;;;4995711;28;20200;-73
2022/07/21 04:56:47;;;;;;;8.27;7.53;;;24.90;65.90;;;;;;4995856;28;20264;-73
2022/07/21 04:59:13;;;;;;;10.23;8.30;;;24.90;65.90;;;;;;5013275;28;20568;-73
2022/07/21 05:01:40;;;;;;;8.25;7.45;;;24.70;66.40;;;;;;4996325;28;20550;-73
2022/07/21 05:04:09;;;;;;;8.18;7.35;;;24.60;66.80;;;;;;4999558;28;20223;-73
2022/07/21 05:06:36;;;;;;;8.50;7.55;;;24.60;67.10;;;;;;5017023;28;20268;-73
2022/07/21 05:09:03;;;;;;;8.45;7.65;;;24.60;67.00;;;;;;4999675;28;20204;-73
2022/07/21 05:11:30;;;;;;;8.68;7.22;;;24.80;66.70;;;;;;5044619;22;20244;-73
2022/07/21 05:13:57;;;;;;;8.57;7.80;;;24.90;66.20;;;;;;5036612;28;20192;-73
2022/07/21 05:16:24;;;;;;;8.82;8.02;;;25.00;65.80;;;;;;5019261;28;20270;-73
2022/07/21 05:18:52;;;;;;;7.55;6.95;;;25.00;65.90;;;;;;5212109;22;20689;-74
2022/07/21 05:21:20;;;;;;;6.88;6.38;;;25.00;65.70;;;;;;5037370;28;20226;-74
2022/07/21 05:23:47;;;;;;;7.10;6.45;;;25.10;63.90;;;;;;5038462;28;20195;-74
2022/07/21 05:26:14;;;;;;;7.50;6.07;;;25.20;62.80;;;;;;5038487;28;20286;-74
2022/07/21 05:28:41;;;;;;;6.30;5.70;;;25.40;61.70;;;;;;5038217;28;20195;-73
2022/07/21 05:31:08;;;;;;;6.25;5.75;;;25.60;60.90;;;;;;5038296;28;20222;-74
2022/07/21 05:33:36;;;;;;;6.40;5.80;;;25.80;60.30;;;;;;5038290;28;20237;-74
2022/07/21 05:36:03;;;;;;;6.85;6.20;;;25.90;60.00;;;;;;5038462;28;20203;-73
2022/07/21 05:38:32;;;;;;;6.47;5.97;;;26.10;59.60;;;;;;5038552;28;20203;-74
2022/07/21 05:41:02;;;;;;;6.30;5.80;;;26.20;59.30;;;;;;5038138;28;20211;-73
2022/07/21 05:43:29;;;;;;;6.40;5.90;;;26.40;58.90;;;;;;5038184;28;20202;-74
2022/07/21 05:45:56;;;;;;;6.60;5.53;;;26.50;58.50;;;;;;5038072;28;20196;-74
2022/07/21 05:48:23;;;;;;;6.13;5.72;;;26.60;58.40;;;;;;5056050;28;20194;-72
2022/07/21 05:50:50;;;;;;;6.05;5.55;;;26.70;57.90;;;;;;5170437;22;20207;-72
2022/07/21 05:53:17;;;;;;;6.50;5.90;;;26.80;57.60;;;;;;5018301;28;20198;-73
2022/07/21 05:55:46;;;;;;;5.78;5.25;;;26.90;57.20;;;;;;5018132;28;20249;-73
2022/07/21 05:58:13;;;;;;;5.85;5.35;;;27.00;57.00;;;;;;5035683;28;20266;-73
2022/07/21 06:00:40;;;;;;;6.40;5.78;;;27.00;57.00;;;;;;5030830;28;20218;-73
2022/07/21 06:03:07;;;;;;;6.05;5.50;;;26.90;57.50;;;;;;5037854;28;20266;-73
2022/07/21 06:05:34;;;;;;;5.95;5.35;;;27.00;56.90;;;;;;5037847;28;20198;-73
2022/07/21 06:08:02;;;;;;;5.95;5.43;;;27.20;56.50;;;;;;5037783;28;20195;-73
2022/07/21 06:10:29;;;;;;;5.65;5.20;;;27.30;56.00;;;;;;5055672;28;20211;-73
2022/07/21 06:12:57;;;;;;;5.38;4.90;;;27.40;55.60;;;;;;5037221;28;20217;-73
2022/07/21 06:15:24;;;;;;;6.80;5.13;;;27.60;55.40;;;;;;5037641;28;20199;-73
2022/07/21 06:17:51;;;;;;;5.75;5.25;;;27.70;55.10;;;;;;5038340;28;20282;-73
2022/07/21 06:20:18;;;;;;;5.75;5.25;;;27.70;54.70;;;;;;5037468;28;20253;-73
2022/07/21 06:22:46;;;;;;;5.15;4.75;;;27.80;54.60;;;;;;5037662;28;20582;-73
2022/07/21 06:25:13;;;;;;;5.65;5.15;;;27.90;54.40;;;;;;5037441;28;20206;-73
2022/07/21 06:27:40;;;;;;;6.03;5.47;;;28.00;54.20;;;;;;5037395;28;20193;-73
2022/07/21 06:30:10;;;;;;;5.80;5.30;;;28.00;54.00;;;;;;5037183;28;20218;-73
2022/07/21 06:32:37;;;;;;;5.82;5.43;;;28.10;53.90;;;;;;5055089;28;20187;-73
2022/07/21 06:35:05;;;;;;;5.32;4.82;;;28.00;53.80;;;;;;5037105;28;20614;-73
2022/07/21 06:37:32;;;;;;;6.07;5.47;;;28.00;53.90;;;;;;5053666;28;20216;-73
2022/07/21 06:39:59;;;;;;;5.57;5.13;;;27.90;54.10;;;;;;5037061;28;20223;-73
2022/07/21 06:42:26;;;;;;;5.07;4.68;;;27.80;54.20;;;;;;5037169;28;20252;-73
2022/07/21 06:44:53;;;;;;;5.97;5.47;;;27.70;54.50;;;;;;5036919;28;20660;-73
2022/07/21 06:47:22;;;;;;;5.25;4.85;;;27.70;54.60;;;;;;5054818;28;20210;-73
2022/07/21 06:49:48;;;;;;;5.03;4.63;;;27.70;54.50;;;;;;5036881;28;20214;-73
2022/07/21 06:52:16;;;;;;;5.82;5.22;;;27.90;54.30;;;;;;5055110;28;20282;-73
2022/07/21 06:54:43;;;;;;;5.32;4.93;;;28.00;53.90;;;;;;5036651;28;20198;-73
2022/07/21 06:57:10;;;;;;;6.10;5.60;;;28.10;53.60;;;;;;5036770;28;20242;-73
2022/07/21 06:59:37;;;;;;;5.35;4.95;;;28.30;53.30;;;;;;5054486;28;20213;-73
2022/07/21 07:02:04;;;;;;;6.15;5.28;;;28.40;53.00;;;;;;5036680;28;20289;-73
2022/07/21 07:04:32;;;;;;;5.38;4.88;;;28.40;52.80;;;;;;5036770;28;20223;-73
2022/07/21 07:07:00;;;;;;;5.43;5.03;;;28.50;52.70;;;;;;5036744;28;20198;-73
2022/07/21 07:09:26;;;;;;;5.60;5.07;;;28.60;52.40;;;;;;5036324;28;20211;-73
2022/07/21 07:11:55;;;;;;;5.85;5.35;;;28.80;52.10;;;;;;5054339;28;20191;-73
2022/07/21 07:14:22;;;;;;;5.60;5.10;;;28.90;51.80;;;;;;5036775;28;20285;-73
2022/07/21 07:16:49;;;;;;;5.70;5.20;;;29.00;51.40;;;;;;5036341;28;20301;-74
2022/07/21 07:19:16;;;;;;;6.10;5.50;;;29.20;51.10;;;;;;5036502;28;20195;-73
2022/07/21 07:21:44;;;;;;;5.82;5.30;;;29.30;50.80;;;;;;5036582;28;20194;-73
2022/07/21 07:24:11;;;;;;;5.97;5.47;;;29.40;50.50;;;;;;5053523;28;20595;-74
2022/07/21 07:26:38;;;;;;;5.22;4.82;;;29.50;50.20;;;;;;5036189;28;20187;-73
2022/07/21 07:29:06;;;;;;;5.80;5.18;;;29.60;50.00;;;;;;5036015;28;20226;-74
2022/07/21 07:31:33;;;;;;;5.40;4.90;;;29.70;49.70;;;;;;5036337;28;20571;-73
2022/07/21 07:34:01;;;;;;;5.40;5.00;;;29.70;49.50;;;;;;5036654;28;20571;-74
2022/07/21 07:36:28;;;;;;;5.43;5.03;;;29.80;49.30;;;;;;5036206;28;20195;-73
2022/07/21 07:38:57;;;;;;;5.55;5.05;;;29.80;49.20;;;;;;5035832;28;20280;-74
2022/07/21 07:41:25;;;;;;;5.85;5.30;;;29.90;49.00;;;;;;5035849;28;20272;-73
2022/07/21 07:43:52;;;;;;;5.70;5.20;;;30.00;48.80;;;;;;5053855;28;20191;-74
2022/07/21 07:46:19;;;;;;;5.70;5.13;;;30.10;48.70;;;;;;5054206;28;20209;-74
2022/07/21 07:48:47;;;;;;;5.82;5.32;;;30.10;48.50;;;;;;5036008;28;20659;-74
2022/07/21 07:51:14;;;;;;;5.70;5.20;;;30.10;48.50;;;;;;5053520;28;20228;-74
2022/07/21 07:53:42;;;;;;;5.85;5.15;;;30.10;48.40;;;;;;5053682;28;20182;-74
2022/07/21 07:56:10;;;;;;;5.28;4.80;;;30.00;48.50;;;;;;5035500;28;20725;-73
2022/07/21 07:58:38;;;;;;;5.60;5.20;;;29.90;48.60;;;;;;5035483;28;20210;-74
2022/07/21 08:01:05;;;;;;;5.55;5.05;;;29.90;48.60;;;;;;5035636;28;20225;-73
2022/07/21 08:03:32;;;;;;;5.55;5.05;;;30.00;48.50;;;;;;5035757;28;20655;-73
2022/07/21 08:06:03;;;;;;;5.70;5.20;;;30.00;48.30;;;;;;5036863;28;20659;-74
2022/07/21 08:08:30;;;;;;;5.40;5.00;;;29.90;48.40;;;;;;5036550;28;20268;-73
2022/07/21 08:10:56;;;;;;;5.28;4.88;;;29.80;48.70;;;;;;5073405;22;20223;-73
2022/07/21 08:13:25;;;;;;;5.00;4.60;;;29.60;49.00;;;;;;5033765;28;20199;-73
2022/07/21 08:15:52;;;;;;;5.65;5.25;;;29.50;49.20;;;;;;5034710;28;20195;-73
2022/07/21 08:18:19;;;;;;;5.30;4.90;;;29.50;49.20;;;;;;5033835;28;20204;-73
2022/07/21 08:20:47;;;;;;;5.30;4.90;;;29.50;49.10;;;;;;5047631;28;20207;-73
2022/07/21 08:23:14;;;;;;;5.45;5.05;;;29.60;49.00;;;;;;5053851;28;20298;-73
2022/07/21 08:25:41;;;;;;;5.65;5.15;;;29.50;48.90;;;;;;5053805;28;20211;-73
2022/07/21 08:28:09;;;;;;;5.20;4.80;;;29.60;48.90;;;;;;5054050;28;20186;-73
2022/07/21 08:30:37;;;;;;;5.13;4.72;;;29.60;48.80;;;;;;5041811;28;20214;-73
2022/07/21 08:33:05;;;;;;;5.55;5.05;;;29.60;49.00;;;;;;5035477;28;20632;-73
2022/07/21 08:35:33;;;;;;;5.50;5.10;;;29.50;49.20;;;;;;5053313;28;20190;-73
2022/07/21 08:38:01;;;;;;;5.15;4.75;;;29.40;49.50;;;;;;5038106;28;20295;-73
2022/07/21 08:40:29;;;;;;;5.07;4.72;;;29.20;49.70;;;;;;5039335;28;20214;-73
2022/07/21 08:42:56;;;;;;;5.65;5.15;;;29.10;50.00;;;;;;5039415;28;20281;-73
2022/07/21 08:45:23;;;;;;;5.38;4.88;;;29.10;50.10;;;;;;5039579;28;20198;-73
2022/07/21 08:47:53;;;;;;;4.90;4.50;;;29.10;50.00;;;;;;5038981;28;20564;-74
2022/07/21 08:50:20;;;;;;;4.97;4.57;;;29.30;49.60;;;;;;5038853;28;20707;-73
2022/07/21 08:52:47;;;;;;;5.13;4.72;;;29.40;49.30;;;;;;5038966;28;20241;-73
2022/07/21 08:55:14;;;;;;;5.07;4.68;;;29.50;48.90;;;;;;5038995;28;20248;-74
2022/07/21 08:57:42;;;;;;;5.35;4.85;;;29.70;48.60;;;;;;5038931;28;20229;-73
2022/07/21 09:00:10;;;;;;;5.70;5.20;;;29.80;49.00;;;;;;5038641;28;20707;-73
2022/07/21 09:02:38;;;;;;;5.13;4.72;;;29.80;48.40;;;;;;5039070;28;20601;-73
2022/07/21 09:05:08;;;;;;;5.18;4.78;;;29.60;48.60;;;;;;5039202;28;20234;-74
2022/07/21 09:07:49;;;;;;;5.35;4.95;;;29.50;48.90;;;;;;5038833;28;20664;-73
2022/07/21 09:10:16;;;;;;;5.80;5.30;;;29.30;49.20;;;;;;5038601;28;20280;-73
2022/07/21 09:12:51;;;;;;;5.30;4.90;;;29.20;49.50;;;;;;5038769;28;20582;-74
2022/07/21 09:15:19;;;;;;;5.13;4.63;;;29.10;49.60;;;;;;5056619;28;20182;-74
2022/07/21 09:17:46;;;;;;;5.03;4.63;;;29.20;49.70;;;;;;5056537;28;20280;-74
2022/07/21 09:20:24;;;;;;;5.85;5.30;;;29.30;49.40;;;;;;5056580;28;20217;-73
2022/07/21 09:23:05;;;;;;;5.30;4.90;;;29.30;49.20;;;;;;5038598;28;20260;-74
2022/07/21 09:25:40;;;;;;;5.03;4.70;;;29.30;49.20;;;;;;5038517;28;20755;-74
2022/07/21 09:28:09;;;;;;;5.05;4.65;;;29.30;49.00;;;;;;5038252;28;20632;-74
2022/07/21 09:30:57;;;;;;;4.75;4.43;;;29.30;49.10;;;;;;5038336;28;20222;-74
2022/07/21 09:33:26;;;;;;;5.25;4.82;;;29.20;49.20;;;;;;5038370;28;20199;-74
2022/07/21 09:36:00;;;;;;;5.20;4.72;;;29.20;49.30;;;;;;5038203;28;20222;-74
2022/07/21 09:38:27;;;;;;;5.05;4.65;;;29.10;49.30;;;;;;5038097;28;20740;-73
2022/07/21 09:40:56;;;;;;;5.15;4.75;;;29.10;49.50;;;;;;5055882;28;20211;-73
2022/07/21 09:43:33;;;;;;;5.18;4.70;;;29.00;49.50;;;;;;5038105;28;20202;-73
2022/07/21 09:46:02;;;;;;;5.53;5.03;;;29.10;49.60;;;;;;5038022;28;20194;-73
2022/07/21 09:48:33;;;;;;;4.95;4.55;;;29.10;49.40;;;;;;5037393;28;20194;-74
2022/07/21 09:51:27;;;;;;;4.78;4.47;;;29.20;49.10;;;;;;5056091;28;20233;-73
2022/07/21 09:53:56;;;;;;;5.22;4.82;;;29.30;48.80;;;;;;5055669;28;20187;-74
2022/07/21 09:56:24;;;;;;;5.00;4.60;;;29.50;48.50;;;;;;5038072;28;20195;-73
2022/07/21 09:58:52;;;;;;;5.10;4.70;;;29.60;48.30;;;;;;5037567;28;20224;-73
2022/07/21 10:01:19;;;;;;;4.72;4.40;;;29.70;48.10;;;;;;5037612;28;20301;-73
2022/07/21 10:03:47;;;;;;;4.93;4.55;;;29.70;48.10;;;;;;5038035;28;20210;-73
2022/07/21 10:06:15;;;;;;;5.10;4.70;;;29.80;48.00;;;;;;5037768;28;20291;-73
2022/07/21 10:08:43;;;;;;;4.68;4.38;;;29.80;47.80;;;;;;5038130;28;20237;-73
2022/07/21 10:11:10;;;;;;;4.88;4.47;;;29.70;47.80;;;;;;5037577;28;20601;-74
2022/07/21 10:13:38;;;;;;;4.90;4.57;;;29.70;47.80;;;;;;5038085;28;20195;-74
2022/07/21 10:16:05;;;;;;;4.53;4.22;;;29.70;47.80;;;;;;5037510;28;20202;-73
2022/07/21 10:18:35;;;;;;;4.65;4.25;;;29.80;47.70;;;;;;5037302;28;20218;-73
2022/07/21 10:21:05;;;;;;;5.05;4.65;;;29.80;47.70;;;;;;5037361;28;20245;-73
2022/07/21 10:23:36;;;;;;;4.80;4.40;;;29.70;47.60;;;;;;5037426;28;20197;-73
2022/07/21 10:26:05;;;;;;;4.75;4.35;;;29.60;47.80;;;;;;5037392;28;20195;-73
2022/07/21 10:28:32;;;;;;;4.55;4.20;;;29.60;48.00;;;;;;5037339;28;20290;-74
2022/07/21 10:31:00;;;;;;;4.65;4.32;;;29.50;48.00;;;;;;5037084;28;20285;-74
2022/07/21 10:33:54;;;;;;;4.78;4.40;;;29.50;48.00;;;;;;5055183;28;20186;-73
2022/07/21 10:36:42;;;;;;;4.50;4.20;;;29.50;48.00;;;;;;5053964;28;20213;-73
2022/07/21 10:39:24;;;;;;;4.95;4.55;;;29.50;48.00;;;;;;5054992;28;20202;-73
2022/07/21 10:41:54;;;;;;;4.90;4.50;;;29.50;48.00;;;;;;5036997;28;20202;-73
2022/07/21 10:44:42;;;;;;;5.10;4.70;;;29.40;48.10;;;;;;5036980;28;20199;-73
2022/07/21 10:47:11;;;;;;;4.38;3.97;;;29.40;48.20;;;;;;5036842;28;20205;-73
2022/07/21 10:49:46;;;;;;;4.68;4.32;;;29.30;48.10;;;;;;5036700;28;20225;-73
2022/07/21 10:52:50;;;;;;;4.47;4.18;;;29.30;48.30;;;;;;5037250;28;20194;-73
2022/07/21 10:55:23;;;;;;;4.85;4.30;;;29.30;48.50;;;;;;5037181;28;20195;-73
2022/07/21 10:58:10;;;;;;;4.53;4.20;;;29.20;48.40;;;;;;5036837;28;20191;-74
2022/07/21 11:00:38;;;;;;;4.10;3.80;;;29.10;48.50;;;;;;5053968;28;20207;-73
2022/07/21 11:03:05;;;;;;;4.45;4.10;;;29.10;48.60;;;;;;5036925;28;20202;-73
2022/07/21 11:05:33;;;;;;;4.40;4.07;;;29.10;48.70;;;;;;5037687;28;20224;-73
2022/07/21 11:08:15;;;;;;;4.20;3.90;;;29.10;48.80;;;;;;5037852;28;20194;-73
2022/07/21 11:10:45;;;;;;;4.93;4.53;;;29.10;48.90;;;;;;5036555;28;20248;-74
2022/07/21 11:13:13;;;;;;;4.40;4.10;;;29.00;48.90;;;;;;5054379;28;20194;-73
2022/07/21 11:15:48;;;;;;;4.53;4.22;;;28.90;49.10;;;;;;5054297;28;20618;-73
2022/07/21 11:18:18;;;;;;;4.47;4.18;;;28.90;49.20;;;;;;5036382;28;20309;-73
2022/07/21 11:21:00;;;;;;;4.25;3.95;;;28.90;49.30;;;;;;5036267;28;20699;-73
2022/07/21 11:23:36;;;;;;;4.38;4.07;;;28.80;49.40;;;;;;5036612;28;20245;-73
2022/07/21 11:26:03;;;;;;;4.30;4.00;;;28.80;49.40;;;;;;5036424;28;20324;-73
2022/07/21 11:28:31;;;;;;;3.97;3.70;;;28.80;49.50;;;;;;5054123;28;20659;-74
2022/07/21 11:31:21;;;;;;;4.57;4.22;;;28.80;49.30;;;;;;5054026;28;20706;-73
2022/07/21 11:33:48;;;;;;;4.30;4.00;;;28.80;49.30;;;;;;5053853;28;20271;-73
2022/07/21 11:36:26;;;;;;;4.40;4.10;;;28.90;49.10;;;;;;5036151;28;20213;-73
2022/07/21 11:39:01;;;;;;;4.38;4.07;;;29.00;49.00;;;;;;5036265;28;20210;-73
2022/07/21 11:41:28;;;;;;;4.40;4.10;;;29.00;48.90;;;;;;5054233;28;20210;-73
2022/07/21 11:43:56;;;;;;;4.20;3.90;;;29.10;48.70;;;;;;5036536;28;20209;-73
2022/07/21 11:46:23;;;;;;;4.70;4.30;;;29.10;48.70;;;;;;5036936;28;20211;-73
2022/07/21 11:49:01;;;;;;;4.10;3.80;;;29.10;48.50;;;;;;5044169;28;20201;-73
2022/07/21 11:51:28;;;;;;;4.10;3.80;;;29.20;48.60;;;;;;5053859;28;20217;-73
2022/07/21 11:53:55;;;;;;;4.32;4.03;;;29.20;48.50;;;;;;5054059;28;20193;-73
2022/07/21 11:56:22;;;;;;;4.10;3.80;;;29.20;48.40;;;;;;5035774;28;20225;-72
2022/07/21 11:58:49;;;;;;;4.15;3.85;;;29.30;49.00;;;;;;5035780;28;20211;-74
2022/07/21 12:01:18;;;;;;;4.20;3.90;;;29.20;48.30;;;;;;5048688;22;20237;-63
2022/07/21 12:03:49;;;;;;;3.90;3.60;;;29.20;48.30;;;;;;5016951;28;20187;-62
2022/07/21 12:06:16;;;;;;;3.92;3.63;;;29.20;48.40;;;;;;5015904;28;20199;-62
2022/07/21 12:08:44;;;;;;;4.38;4.07;;;29.20;48.20;;;;;;5019973;28;20214;-62
2022/07/21 12:11:12;;;;;;;3.92;3.63;;;29.20;48.20;;;;;;5035591;28;20201;-62
2022/07/21 12:13:58;;;;;;;3.95;3.65;;;29.20;48.30;;;;;;5053572;28;20194;-62
2022/07/21 12:16:27;;;;;;;4.30;4.00;;;29.20;48.30;;;;;;5035593;28;20293;-63
2022/07/21 12:19:10;;;;;;;3.92;3.63;;;29.20;48.30;;;;;;5053506;28;20277;-62
2022/07/21 12:21:45;;;;;;;3.92;3.63;;;29.20;48.30;;;;;;5053586;28;20198;-62
2022/07/21 12:24:12;;;;;;;3.72;3.42;;;29.20;48.40;;;;;;5035595;28;20196;-62
2022/07/21 12:26:39;;;;;;;3.97;3.67;;;29.10;48.30;;;;;;5053504;28;20197;-62
2022/07/21 12:29:06;;;;;;;3.80;3.50;;;29.20;48.40;;;;;;5036338;28;20217;-62
2022/07/21 12:31:35;;;;;;;3.67;3.47;;;29.10;48.30;;;;;;5053677;28;20732;-62
2022/07/21 12:34:11;;;;;;;4.28;3.97;;;29.20;48.30;;;;;;5035529;28;20227;-62
2022/07/21 12:36:39;;;;;;;3.70;3.40;;;29.20;48.40;;;;;;5035584;28;20195;-62
2022/07/21 12:42:05;;;;;;;4.10;3.80;;;29.20;48.40;;;;;;5035473;28;20344;-62
2022/07/21 12:44:33;;;;;;;3.95;3.65;;;29.10;48.40;;;;;;5035732;28;20628;-62
2022/07/21 12:47:18;;;;;;;4.10;3.80;;;29.10;48.40;;;;;;5036866;28;20198;-62
2022/07/21 12:49:58;;;;;;;3.78;3.58;;;29.10;48.50;;;;;;5058538;28;20215;-63
2022/07/21 12:52:26;;;;;;;3.95;3.65;;;29.10;48.50;;;;;;5043603;28;20191;-62
2022/07/21 12:54:56;;;;;;;3.88;3.58;;;29.10;48.60;;;;;;5054469;28;20203;-63
2022/07/21 12:57:23;;;;;;;3.65;3.45;;;29.00;48.60;;;;;;5055962;28;20183;-63
2022/07/21 12:59:50;;;;;;;3.92;3.63;;;29.00;48.70;;;;;;5037077;28;20814;-62
2022/07/21 13:02:18;;;;;;;3.80;3.50;;;29.00;48.80;;;;;;5054824;28;20197;-62